Terminal Aerodrome Forecast
Issued by NWS

Current Version | Previous Version | Text Only | Print | Product List | Glossary Off
Versions: 1 2 3 4 5 6 7 8 9 10 11 12 13 14 15

000
FTUS41 KPBZ 172320
TAFMGW
TAF
KMGW 172320Z 1800/1824 08006KT P6SM VCSH BKN090
     FM181100 08008KT 6SM SHRA OVC045
     FM181300 08009KT 5SM SHRA OVC030
     FM181700 09010G20KT 3SM SHRA OVC015
     FM182200 10012G20KT 5SM SHRA OVC020=

USA.gov is the U.S. government's official web portal to all federal, state and local government web resources and services.